x

Southeast Bering Sea -205nm Wnw Of Dutch Harbor, Ak (46073) Wave Buoy

6:50 - Sat 26th Jul 2014 All times are UTC.

  • Sig Wave height 4.3ft
  • Swell Direction
  • Peak Period 9s
  • Average Period 6s
  • Wind
    11mph, 16mph gusts
  • Sea Temp 51°f
  • Air Temp 49°f
  • Sea Pressure 1022.5mb

More Historic Weather Station data

Upgrade to MSW Pro to gain access to the past 30 days of data for over 8000 Wavebouys and Weather Stations around the globe.

Join Pro

Comparision Forecast

View Surf forecast
   
sam. 07/26 6:50 4.5ft 9s 6s 11 16 mph 1022.5mb 51f 49f
5:50 4.5ft 8s 6s 11 13 mph 1022.5mb 51f 49f
4:50 4.5ft 8s 6s 11 13 mph 1022.3mb 51f 48f
3:50 4.5ft 8s 6s 13 16 mph 1022.1mb 51f 49f
2:50 4ft 8s 6s 9 11 mph 1022.1mb 51f 49f
1:50 4ft 8s 6s 11 13 mph 1022.3mb 51f 49f
12:50 4ft 8s 6s 11 13 mph 1022.6mb 51f 49f
11:50 3.5ft 8s 6s 9 11 mph 1022.7mb 51f 49f
10:50 4ft 8s 6s 9 11 mph 1023mb 51f 48f
9:50 3.5ft 8s 6s 9 11 mph 1022.8mb 51f 49f
8:50 4ft 8s 6s 9 11 mph 1022.9mb 51f 50f
7:50 4.5ft 8s 6s 9 11 mph 1022.7mb 51f 49f
6:50 4.5ft 8s 6s 11 13 mph 1022.6mb 52f 50f
5:50 5ft 8s 6s 11
mph
1022.5mb 51f 50f
4:50 5ft 8s 6s 13 16 mph 1022.6mb 52f 50f
3:50 4.5ft 8s 6s 13 16 mph 1022.7mb 52f 50f
2:50 5ft 8s 6s 11 16 mph 1023.2mb 52f 50f
1:50 4.5ft 8s 6s 11 16 mph 1023.4mb 52f 50f
12:50 5ft 8s 6s 11 16 mph 1023.4mb 52f 50f
ven. 07/25 11:50 4.5ft 9s 6s 11 13 mph 1023.3mb 51f 50f
10:50 5ft 9s 6s 11 13 mph 1023.5mb 51f 49f
9:50 5ft 8s 6s 11 16 mph 1023.7mb 51f 49f
8:50 5ft 8s 6s 11 13 mph 1023.8mb 51f 49f
7:50 4.5ft 9s 6s 13 16 mph 1024mb 51f 49f
6:50 6ft 9s 6s 13 16 mph 1024mb 51f 49f
5:50 6ft 9s 6s 11 16 mph 1024mb 51f 49f
4:50 6ft 9s 6s 11 13 mph 1023.7mb 51f 50f
3:50 5.5ft 9s 6s 13 16 mph 1023.6mb 51f 50f
2:50 6ft 8s 6s 13 18 mph 1023.5mb 51f 50f
1:50 5ft 8s 6s 13 16 mph 1023.7mb 51f 50f
12:50 5ft 8s 6s 13 16 mph 1024.1mb 51f 50f
11:50 5ft 8s 6s 13 16 mph 1024.2mb 51f 50f
10:50 5ft 8s 6s 11 13 mph 1024.1mb 51f 50f
9:50 5.5ft 8s 6s 11 13 mph 1024.1mb 51f 51f
8:50 5.5ft 8s 6s 11 13 mph 1024.1mb 51f 51f
7:50 5ft 7s 6s 13 16 mph 1023.8mb 51f 51f
6:50 5.5ft 7s 6s 13 16 mph 1023.4mb 51f 51f
5:50 5ft 8s 6s 11 13 mph 1023.1mb 51f 51f
4:50 5ft 8s 6s 13 16 mph 1022.8mb 51f 51f
3:50 6ft 8s 6s 13 16 mph 1022.9mb 51f 51f
2:50 5.5ft 7s 6s 16 18 mph 1022.5mb 51f 51f
1:50 5ft 7s 6s 13 18 mph 1022.7mb 51f 51f
12:50 4.5ft 6s 5s 16 18 mph 1022.6mb 51f 51f
jeu. 07/24 11:50 5ft 7s 5s 16 18 mph 1022.6mb 51f 51f
10:50 4.5ft 6s 5s 16 18 mph 1022.5mb 51f 51f
9:50 5ft 7s 5s 13 18 mph 1022.5mb 51f 51f
8:50 5ft 7s 5s 16 20 mph 1022.4mb 51f 51f
7:50 5ft 7s 5s 18 22 mph 1022.3mb 51f 51f
6:50 5ft 6s 5s 18 22 mph 1022.4mb 51f 51f
5:50 5.5ft 6s 5s 16 20 mph 1022.2mb 51f 51f
4:50 5ft 7s 5s 18 22 mph 1022mb 51f 51f
3:50 5ft 6s 5s 18 25 mph 1021.9mb 51f 51f
2:50 5ft 6s 5s 18 20 mph 1022.2mb 51f 51f
1:50 5ft 6s 5s 18 20 mph 1022.2mb 51f 51f
12:50 4.5ft 6s 5s 20 27 mph 1022.2mb 51f 51f
11:50 4.5ft 6s 5s 20 25 mph 1022.4mb 51f 51f
10:50 4.5ft 5s 5s 20 22 mph 1022.6mb 51f 51f
9:50 4.5ft 6s 4s 20 25 mph 1022.6mb 51f 51f
8:50 4ft 5s 5s 18 20 mph 1022.6mb 51f 51f
7:50 4ft 5s 5s 20 22 mph 1022.1mb 51f 51f
6:50 4ft 5s 5s 18 20 mph 1021.9mb 51f 51f
5:50 4ft 5s 5s 16 20 mph 1021.7mb 51f 51f
4:50 3.5ft 5s 5s 16 20 mph 1021.5mb 51f 51f
3:50 3.5ft 5s 5s 16 18 mph 1021.6mb 51f 51f
2:50 3.5ft 7s 5s 16 20 mph 1021.9mb 51f 51f
1:50 3.5ft 5s 5s 18 20 mph 1021.8mb 51f 51f
12:50 3.5ft 7s 5s 16 18 mph 1022mb 51f 51f
mer. 07/23 11:50 3.5ft 7s 5s 13 16 mph 1022.1mb 51f 51f
10:50 3ft 8s 5s 16 18 mph 1022.1mb 51f 51f
9:50 3.5ft 5s 5s 13 16 mph 1022.1mb 51f 51f
8:50 3.5ft 8s 5s 11 16 mph 1022.1mb 51f 51f
7:50 3.5ft 5s 5s 13
mph
1021.9mb 51f 51f
6:50 3.5ft 5s 5s 16 18 mph 1021.7mb 51f 51f
5:50 3.5ft 5s 4s 16 18 mph 1021.4mb 51f 51f
4:50 3.5ft 5s 4s 16 18 mph 1021.2mb 51f 50f
3:50 3.5ft 4s 5s 16 18 mph 1020.9mb 51f 51f
2:50 3.5ft 4s 4s 16 18 mph 1020.7mb 51f 51f
1:50 3ft 4s 4s 16 18 mph 1020.5mb 51f 51f
12:50 2.5ft 4s 4s 13 16 mph 1020.6mb 51f 50f
11:50 2.5ft 7s 5s 16 18 mph 1020.7mb 51f 50f
10:50 2.5ft 7s 5s 13 18 mph 1020.6mb 51f 51f
9:50 2.5ft 6s 5s 13
mph
1020.7mb 51f 51f
8:50 2.5ft 4s 4s 13 16 mph 1020.6mb 51f 51f
7:50 3ft 6s 5s 13 16 mph 1020.2mb 51f 51f
6:50 3ft 4s 5s 13 16 mph 1019.8mb 51f 51f
5:50 3.5ft 7s 5s 13 16 mph 1019.7mb 51f 51f
4:50 3.5ft 7s 5s 13
mph
1019.7mb 51f 51f
3:50 3.5ft 7s 5s 13 18 mph 1019.5mb 52f 51f
2:50 3.5ft 6s 5s 13 16 mph 1019.1mb 52f 51f
1:50 3.5ft 7s 5s 13 16 mph 1018.9mb 51f 51f
12:50 3ft 8s 5s 13 16 mph 1019mb 51f 51f
mar. 07/22 11:50 2.5ft 7s 5s 16 18 mph 1018.6mb 51f 51f
10:50 2.5ft 7s 5s 13 16 mph 1018.4mb 51f 51f
9:50 2.5ft 14s 5s 13 16 mph 1018.2mb 52f 51f
8:50 2.5ft 7s 5s 13 16 mph 1017.9mb 51f 51f
7:50 2.5ft 13s 5s 13 16 mph 1017.6mb 52f 51f